sensor_id;sensor_type;location;lat;lon;timestamp;temperature;humidity
9497;DHT22;4786;51.270;4.456;2023-02-01T00:02:00;6.50;99.90
9497;DHT22;4786;51.270;4.456;2023-02-01T00:04:27;6.50;99.90
9497;DHT22;4786;51.270;4.456;2023-02-01T00:06:53;6.40;99.90
9497;DHT22;4786;51.270;4.456;2023-02-01T00:09:19;6.40;99.90
9497;DHT22;4786;51.270;4.456;2023-02-01T00:11:44;6.40;99.90
9497;DHT22;4786;51.270;4.456;2023-02-01T00:14:10;6.40;99.90
9497;DHT22;4786;51.270;4.456;2023-02-01T00:16:37;6.40;99.90
9497;DHT22;4786;51.270;4.456;2023-02-01T00:19:13;6.50;99.90
9497;DHT22;4786;51.270;4.456;2023-02-01T00:21:40;6.50;99.90
9497;DHT22;4786;51.270;4.456;2023-02-01T00:24:09;6.40;99.90
9497;DHT22;4786;51.270;4.456;2023-02-01T00:29:09;6.30;99.90
9497;DHT22;4786;51.270;4.456;2023-02-01T00:31:36;6.30;99.90
9497;DHT22;4786;51.270;4.456;2023-02-01T00:34:02;6.30;99.90
9497;DHT22;4786;51.270;4.456;2023-02-01T00:36:29;6.40;99.90
9497;DHT22;4786;51.270;4.456;2023-02-01T00:38:55;6.40;99.90
9497;DHT22;4786;51.270;4.456;2023-02-01T00:41:22;6.50;99.90
9497;DHT22;4786;51.270;4.456;2023-02-01T00:43:49;6.40;99.90
9497;DHT22;4786;51.270;4.456;2023-02-01T00:46:17;6.40;99.90
9497;DHT22;4786;51.270;4.456;2023-02-01T00:48:43;6.40;99.90
9497;DHT22;4786;51.270;4.456;2023-02-01T00:51:12;6.40;99.90
9497;DHT22;4786;51.270;4.456;2023-02-01T00:53:37;6.40;99.90
9497;DHT22;4786;51.270;4.456;2023-02-01T00:56:04;6.40;99.90
9497;DHT22;4786;51.270;4.456;2023-02-01T00:58:31;6.40;99.90
9497;DHT22;4786;51.270;4.456;2023-02-01T01:01:04;6.30;99.90
9497;DHT22;4786;51.270;4.456;2023-02-01T01:03:32;6.20;99.90
9497;DHT22;4786;51.270;4.456;2023-02-01T01:06:05;6.20;99.90
9497;DHT22;4786;51.270;4.456;2023-02-01T01:08:31;6.20;99.90
9497;DHT22;4786;51.270;4.456;2023-02-01T01:10:57;6.20;99.90
9497;DHT22;4786;51.270;4.456;2023-02-01T01:13:23;6.20;99.90
9497;DHT22;4786;51.270;4.456;2023-02-01T01:15:49;6.20;99.90
9497;DHT22;4786;51.270;4.456;2023-02-01T01:18:15;6.30;99.90
9497;DHT22;4786;51.270;4.456;2023-02-01T01:20:41;6.30;99.90
9497;DHT22;4786;51.270;4.456;2023-02-01T01:23:08;6.40;99.90
9497;DHT22;4786;51.270;4.456;2023-02-01T01:25:38;6.50;99.90
9497;DHT22;4786;51.270;4.456;2023-02-01T01:28:06;6.60;99.90
9497;DHT22;4786;51.270;4.456;2023-02-01T01:30:35;6.40;99.90
9497;DHT22;4786;51.270;4.456;2023-02-01T01:33:01;6.40;99.90
9497;DHT22;4786;51.270;4.456;2023-02-01T01:35:32;6.50;99.90
9497;DHT22;4786;51.270;4.456;2023-02-01T01:37:59;6.50;99.90
9497;DHT22;4786;51.270;4.456;2023-02-01T01:40:26;6.40;99.90
9497;DHT22;4786;51.270;4.456;2023-02-01T01:42:53;6.40;99.90
9497;DHT22;4786;51.270;4.456;2023-02-01T01:48:00;6.40;99.90
9497;DHT22;4786;51.270;4.456;2023-02-01T01:50:33;6.40;99.90
9497;DHT22;4786;51.270;4.456;2023-02-01T01:53:04;6.40;99.90
9497;DHT22;4786;51.270;4.456;2023-02-01T01:55:34;6.40;99.90
9497;DHT22;4786;51.270;4.456;2023-02-01T01:58:08;6.50;99.90
9497;DHT22;4786;51.270;4.456;2023-02-01T02:00:35;6.50;99.90
9497;DHT22;4786;51.270;4.456;2023-02-01T02:03:14;6.50;99.90
9497;DHT22;4786;51.270;4.456;2023-02-01T02:05:41;6.50;99.90
9497;DHT22;4786;51.270;4.456;2023-02-01T02:08:07;6.60;99.90
9497;DHT22;4786;51.270;4.456;2023-02-01T02:10:33;6.60;99.90
9497;DHT22;4786;51.270;4.456;2023-02-01T02:13:18;6.60;99.90
9497;DHT22;4786;51.270;4.456;2023-02-01T02:32:39;6.50;99.90
9497;DHT22;4786;51.270;4.456;2023-02-01T02:38:10;6.50;99.90
9497;DHT22;4786;51.270;4.456;2023-02-01T02:43:17;6.40;99.90
9497;DHT22;4786;51.270;4.456;2023-02-01T02:49:07;6.50;99.90
9497;DHT22;4786;51.270;4.456;2023-02-01T02:51:41;6.50;99.90
9497;DHT22;4786;51.270;4.456;2023-02-01T02:54:34;6.50;99.90
9497;DHT22;4786;51.270;4.456;2023-02-01T02:57:20;6.50;99.90
9497;DHT22;4786;51.270;4.456;2023-02-01T03:00:09;6.50;99.90
9497;DHT22;4786;51.270;4.456;2023-02-01T03:02:54;6.50;99.90
9497;DHT22;4786;51.270;4.456;2023-02-01T03:05:43;6.50;99.90
9497;DHT22;4786;51.270;4.456;2023-02-01T03:11:04;6.50;99.90
9497;DHT22;4786;51.270;4.456;2023-02-01T03:16:28;6.50;99.90
9497;DHT22;4786;51.270;4.456;2023-02-01T03:19:06;6.50;99.90
9497;DHT22;4786;51.270;4.456;2023-02-01T03:21:40;6.50;99.90
9497;DHT22;4786;51.270;4.456;2023-02-01T03:24:16;6.50;99.90
9497;DHT22;4786;51.270;4.456;2023-02-01T03:26:50;6.50;99.90
9497;DHT22;4786;51.270;4.456;2023-02-01T03:29:27;6.50;99.90
9497;DHT22;4786;51.270;4.456;2023-02-01T03:31:55;6.40;99.90
9497;DHT22;4786;51.270;4.456;2023-02-01T03:34:21;6.50;99.90
9497;DHT22;4786;51.270;4.456;2023-02-01T03:36:55;6.40;99.90
9497;DHT22;4786;51.270;4.456;2023-02-01T03:39:39;6.40;99.90
9497;DHT22;4786;51.270;4.456;2023-02-01T03:47:35;6.20;99.90
9497;DHT22;4786;51.270;4.456;2023-02-01T03:50:06;6.40;99.90
9497;DHT22;4786;51.270;4.456;2023-02-01T03:52:59;6.20;99.90
9497;DHT22;4786;51.270;4.456;2023-02-01T03:55:27;6.10;99.90
9497;DHT22;4786;51.270;4.456;2023-02-01T04:00:25;6.20;99.90
9497;DHT22;4786;51.270;4.456;2023-02-01T04:02:52;6.20;99.90
9497;DHT22;4786;51.270;4.456;2023-02-01T04:05:19;6.10;99.90
9497;DHT22;4786;51.270;4.456;2023-02-01T04:07:45;6.00;99.90
9497;DHT22;4786;51.270;4.456;2023-02-01T04:10:12;6.00;99.90
9497;DHT22;4786;51.270;4.456;2023-02-01T04:12:38;6.00;99.90
9497;DHT22;4786;51.270;4.456;2023-02-01T04:15:05;6.10;99.90
9497;DHT22;4786;51.270;4.456;2023-02-01T04:17:31;6.00;99.90
9497;DHT22;4786;51.270;4.456;2023-02-01T04:19:57;6.10;99.90
9497;DHT22;4786;51.270;4.456;2023-02-01T04:22:23;6.10;99.90
9497;DHT22;4786;51.270;4.456;2023-02-01T04:24:49;6.10;99.90
9497;DHT22;4786;51.270;4.456;2023-02-01T04:27:15;6.10;99.90
9497;DHT22;4786;51.270;4.456;2023-02-01T04:29:41;6.10;99.90
9497;DHT22;4786;51.270;4.456;2023-02-01T04:32:08;6.00;99.90
9497;DHT22;4786;51.270;4.456;2023-02-01T04:34:34;6.20;99.90
9497;DHT22;4786;51.270;4.456;2023-02-01T04:37:00;6.10;99.90
9497;DHT22;4786;51.270;4.456;2023-02-01T04:39:25;6.30;99.90
9497;DHT22;4786;51.270;4.456;2023-02-01T04:41:51;6.10;99.90
9497;DHT22;4786;51.270;4.456;2023-02-01T04:44:18;6.10;99.90
9497;DHT22;4786;51.270;4.456;2023-02-01T04:46:45;6.10;99.90
9497;DHT22;4786;51.270;4.456;2023-02-01T04:49:12;6.00;99.90
9497;DHT22;4786;51.270;4.456;2023-02-01T04:51:38;6.00;99.90
9497;DHT22;4786;51.270;4.456;2023-02-01T04:54:04;6.00;99.90
9497;DHT22;4786;51.270;4.456;2023-02-01T04:56:31;6.00;99.90
9497;DHT22;4786;51.270;4.456;2023-02-01T04:58:57;6.20;99.90
9497;DHT22;4786;51.270;4.456;2023-02-01T05:01:23;6.10;99.90
9497;DHT22;4786;51.270;4.456;2023-02-01T05:03:50;6.10;99.90
9497;DHT22;4786;51.270;4.456;2023-02-01T05:06:16;6.10;99.90
9497;DHT22;4786;51.270;4.456;2023-02-01T05:08:42;6.30;99.90
9497;DHT22;4786;51.270;4.456;2023-02-01T05:11:09;6.10;99.90
9497;DHT22;4786;51.270;4.456;2023-02-01T05:13:58;6.10;99.90
9497;DHT22;4786;51.270;4.456;2023-02-01T05:16:25;6.10;99.90
9497;DHT22;4786;51.270;4.456;2023-02-01T05:18:52;6.10;99.90
9497;DHT22;4786;51.270;4.456;2023-02-01T05:21:18;6.00;99.90
9497;DHT22;4786;51.270;4.456;2023-02-01T05:23:44;6.00;99.90
9497;DHT22;4786;51.270;4.456;2023-02-01T05:26:40;5.90;99.90
9497;DHT22;4786;51.270;4.456;2023-02-01T05:29:08;5.90;99.90
9497;DHT22;4786;51.270;4.456;2023-02-01T05:31:34;5.90;99.90
9497;DHT22;4786;51.270;4.456;2023-02-01T05:34:01;5.90;99.90
9497;DHT22;4786;51.270;4.456;2023-02-01T05:36:27;5.90;99.90
9497;DHT22;4786;51.270;4.456;2023-02-01T05:38:53;6.10;99.90
9497;DHT22;4786;51.270;4.456;2023-02-01T05:41:19;5.90;99.90
9497;DHT22;4786;51.270;4.456;2023-02-01T05:43:45;5.90;99.90
9497;DHT22;4786;51.270;4.456;2023-02-01T05:46:12;6.00;99.90
9497;DHT22;4786;51.270;4.456;2023-02-01T05:48:42;6.10;99.90
9497;DHT22;4786;51.270;4.456;2023-02-01T05:51:09;6.10;99.90
9497;DHT22;4786;51.270;4.456;2023-02-01T05:53:35;6.10;99.90
9497;DHT22;4786;51.270;4.456;2023-02-01T05:56:01;6.10;99.90
9497;DHT22;4786;51.270;4.456;2023-02-01T05:58:27;6.10;99.90
9497;DHT22;4786;51.270;4.456;2023-02-01T06:00:52;6.10;99.90
9497;DHT22;4786;51.270;4.456;2023-02-01T06:03:18;6.10;99.90
9497;DHT22;4786;51.270;4.456;2023-02-01T06:05:44;6.10;99.90
9497;DHT22;4786;51.270;4.456;2023-02-01T06:08:11;6.10;99.90
9497;DHT22;4786;51.270;4.456;2023-02-01T06:10:37;6.10;99.90
9497;DHT22;4786;51.270;4.456;2023-02-01T06:13:03;6.10;99.90
9497;DHT22;4786;51.270;4.456;2023-02-01T06:15:29;6.10;99.90
9497;DHT22;4786;51.270;4.456;2023-02-01T06:17:55;6.00;99.90
9497;DHT22;4786;51.270;4.456;2023-02-01T06:20:21;6.00;99.90
9497;DHT22;4786;51.270;4.456;2023-02-01T06:22:47;6.00;99.90
9497;DHT22;4786;51.270;4.456;2023-02-01T06:25:13;6.10;99.90
9497;DHT22;4786;51.270;4.456;2023-02-01T06:27:39;6.10;99.90
9497;DHT22;4786;51.270;4.456;2023-02-01T06:30:06;6.00;99.90
9497;DHT22;4786;51.270;4.456;2023-02-01T06:32:33;6.00;99.90
9497;DHT22;4786;51.270;4.456;2023-02-01T06:34:59;6.00;99.90
9497;DHT22;4786;51.270;4.456;2023-02-01T06:37:26;6.00;99.90
9497;DHT22;4786;51.270;4.456;2023-02-01T06:39:54;6.00;99.90
9497;DHT22;4786;51.270;4.456;2023-02-01T06:42:20;6.00;99.90
9497;DHT22;4786;51.270;4.456;2023-02-01T06:44:46;5.90;99.90
9497;DHT22;4786;51.270;4.456;2023-02-01T06:47:11;5.90;99.90
9497;DHT22;4786;51.270;4.456;2023-02-01T06:49:37;5.90;99.90
9497;DHT22;4786;51.270;4.456;2023-02-01T06:52:04;6.00;99.90
9497;DHT22;4786;51.270;4.456;2023-02-01T06:54:30;6.00;99.90
9497;DHT22;4786;51.270;4.456;2023-02-01T06:56:58;6.00;99.90
9497;DHT22;4786;51.270;4.456;2023-02-01T06:59:24;5.90;99.90
9497;DHT22;4786;51.270;4.456;2023-02-01T07:01:50;6.10;99.90
9497;DHT22;4786;51.270;4.456;2023-02-01T07:04:16;6.00;99.90
9497;DHT22;4786;51.270;4.456;2023-02-01T07:06:42;6.20;99.90
9497;DHT22;4786;51.270;4.456;2023-02-01T07:09:08;6.10;99.90
9497;DHT22;4786;51.270;4.456;2023-02-01T07:11:34;6.20;99.90
9497;DHT22;4786;51.270;4.456;2023-02-01T07:14:00;6.20;99.90
9497;DHT22;4786;51.270;4.456;2023-02-01T07:16:26;6.10;99.90
9497;DHT22;4786;51.270;4.456;2023-02-01T07:18:52;6.10;99.90
9497;DHT22;4786;51.270;4.456;2023-02-01T07:21:19;6.10;99.90
9497;DHT22;4786;51.270;4.456;2023-02-01T07:23:45;6.10;99.90
9497;DHT22;4786;51.270;4.456;2023-02-01T07:26:13;6.10;99.90
9497;DHT22;4786;51.270;4.456;2023-02-01T07:28:39;6.10;99.90
9497;DHT22;4786;51.270;4.456;2023-02-01T07:31:10;6.20;99.90
9497;DHT22;4786;51.270;4.456;2023-02-01T07:33:37;6.10;99.90
9497;DHT22;4786;51.270;4.456;2023-02-01T07:36:04;6.10;99.90
9497;DHT22;4786;51.270;4.456;2023-02-01T07:38:30;6.10;99.90
9497;DHT22;4786;51.270;4.456;2023-02-01T07:41:00;6.20;99.90
9497;DHT22;4786;51.270;4.456;2023-02-01T07:43:27;6.20;99.90
9497;DHT22;4786;51.270;4.456;2023-02-01T07:45:54;6.00;99.90
9497;DHT22;4786;51.270;4.456;2023-02-01T07:48:21;6.10;99.90
9497;DHT22;4786;51.270;4.456;2023-02-01T07:50:47;6.20;99.90
9497;DHT22;4786;51.270;4.456;2023-02-01T07:53:13;6.20;99.90
9497;DHT22;4786;51.270;4.456;2023-02-01T07:55:39;6.20;99.90
9497;DHT22;4786;51.270;4.456;2023-02-01T07:58:06;6.20;99.90
9497;DHT22;4786;51.270;4.456;2023-02-01T08:00:32;6.30;99.90
9497;DHT22;4786;51.270;4.456;2023-02-01T08:03:16;6.30;99.90
9497;DHT22;4786;51.270;4.456;2023-02-01T08:05:42;6.30;99.90
9497;DHT22;4786;51.270;4.456;2023-02-01T08:08:07;6.40;99.90
9497;DHT22;4786;51.270;4.456;2023-02-01T08:10:34;6.40;99.90
9497;DHT22;4786;51.270;4.456;2023-02-01T08:13:01;6.40;99.90
9497;DHT22;4786;51.270;4.456;2023-02-01T08:15:28;6.40;99.90
9497;DHT22;4786;51.270;4.456;2023-02-01T08:17:55;6.50;99.90
9497;DHT22;4786;51.270;4.456;2023-02-01T08:20:21;6.50;99.90
9497;DHT22;4786;51.270;4.456;2023-02-01T08:22:49;6.50;99.90
9497;DHT22;4786;51.270;4.456;2023-02-01T08:25:15;6.60;99.90
9497;DHT22;4786;51.270;4.456;2023-02-01T08:27:41;6.50;99.90
9497;DHT22;4786;51.270;4.456;2023-02-01T08:30:07;6.60;99.90
9497;DHT22;4786;51.270;4.456;2023-02-01T08:32:33;6.50;99.90
9497;DHT22;4786;51.270;4.456;2023-02-01T08:35:00;6.50;99.90
9497;DHT22;4786;51.270;4.456;2023-02-01T08:37:26;6.60;99.90
9497;DHT22;4786;51.270;4.456;2023-02-01T08:39:52;6.60;99.90
9497;DHT22;4786;51.270;4.456;2023-02-01T08:42:18;6.60;99.90
9497;DHT22;4786;51.270;4.456;2023-02-01T08:45:03;6.70;99.90
9497;DHT22;4786;51.270;4.456;2023-02-01T08:47:30;6.60;99.90
9497;DHT22;4786;51.270;4.456;2023-02-01T08:49:57;6.80;99.90
9497;DHT22;4786;51.270;4.456;2023-02-01T08:52:23;6.70;99.90
9497;DHT22;4786;51.270;4.456;2023-02-01T08:54:49;6.80;99.90
9497;DHT22;4786;51.270;4.456;2023-02-01T08:57:15;6.80;99.90
9497;DHT22;4786;51.270;4.456;2023-02-01T08:59:41;6.90;99.90
9497;DHT22;4786;51.270;4.456;2023-02-01T09:02:12;7.00;99.90
9497;DHT22;4786;51.270;4.456;2023-02-01T09:04:38;7.00;99.90
9497;DHT22;4786;51.270;4.456;2023-02-01T09:07:04;7.10;99.90
9497;DHT22;4786;51.270;4.456;2023-02-01T09:09:30;7.10;99.90
9497;DHT22;4786;51.270;4.456;2023-02-01T09:11:56;7.20;99.90
9497;DHT22;4786;51.270;4.456;2023-02-01T09:14:23;7.20;99.90
9497;DHT22;4786;51.270;4.456;2023-02-01T09:16:49;7.20;99.90
9497;DHT22;4786;51.270;4.456;2023-02-01T09:19:15;7.20;99.90
9497;DHT22;4786;51.270;4.456;2023-02-01T09:21:40;7.20;99.90
9497;DHT22;4786;51.270;4.456;2023-02-01T09:24:08;7.30;99.90
9497;DHT22;4786;51.270;4.456;2023-02-01T09:26:36;7.40;99.90
9497;DHT22;4786;51.270;4.456;2023-02-01T09:29:02;7.40;99.90
9497;DHT22;4786;51.270;4.456;2023-02-01T09:31:29;7.50;99.90
9497;DHT22;4786;51.270;4.456;2023-02-01T09:33:56;7.50;99.90
9497;DHT22;4786;51.270;4.456;2023-02-01T09:36:22;7.60;99.90
9497;DHT22;4786;51.270;4.456;2023-02-01T09:38:49;7.60;99.90
9497;DHT22;4786;51.270;4.456;2023-02-01T09:44:21;7.80;99.90
9497;DHT22;4786;51.270;4.456;2023-02-01T09:46:54;7.80;99.90
9497;DHT22;4786;51.270;4.456;2023-02-01T09:49:31;7.90;99.90
9497;DHT22;4786;51.270;4.456;2023-02-01T09:52:02;7.90;99.90
9497;DHT22;4786;51.270;4.456;2023-02-01T09:57:16;8.10;99.90
9497;DHT22;4786;51.270;4.456;2023-02-01T10:00:00;8.20;99.90
9497;DHT22;4786;51.270;4.456;2023-02-01T10:02:29;8.20;99.90
9497;DHT22;4786;51.270;4.456;2023-02-01T10:04:58;8.30;99.90
9497;DHT22;4786;51.270;4.456;2023-02-01T10:07:39;8.40;99.90
9497;DHT22;4786;51.270;4.456;2023-02-01T10:19:00;8.70;99.90
9497;DHT22;4786;51.270;4.456;2023-02-01T10:21:53;8.80;99.90
9497;DHT22;4786;51.270;4.456;2023-02-01T10:29:43;9.20;99.90
9497;DHT22;4786;51.270;4.456;2023-02-01T10:32:16;9.30;99.90
9497;DHT22;4786;51.270;4.456;2023-02-01T10:34:46;9.60;99.90
9497;DHT22;4786;51.270;4.456;2023-02-01T10:37:31;9.80;99.90
9497;DHT22;4786;51.270;4.456;2023-02-01T10:40:45;9.70;99.90
9497;DHT22;4786;51.270;4.456;2023-02-01T10:42:48;9.70;99.90
9497;DHT22;4786;51.270;4.456;2023-02-01T10:45:20;9.80;99.90
9497;DHT22;4786;51.270;4.456;2023-02-01T10:47:49;9.80;99.90
9497;DHT22;4786;51.270;4.456;2023-02-01T10:50:39;9.80;99.90
9497;DHT22;4786;51.270;4.456;2023-02-01T10:56:06;10.00;99.90
9497;DHT22;4786;51.270;4.456;2023-02-01T10:58:33;10.00;99.90
9497;DHT22;4786;51.270;4.456;2023-02-01T11:01:01;10.00;99.90
9497;DHT22;4786;51.270;4.456;2023-02-01T11:04:09;10.10;99.90
9497;DHT22;4786;51.270;4.456;2023-02-01T11:06:35;10.10;99.90
9497;DHT22;4786;51.270;4.456;2023-02-01T11:14:20;10.10;99.90
9497;DHT22;4786;51.270;4.456;2023-02-01T11:16:59;10.10;99.90
9497;DHT22;4786;51.270;4.456;2023-02-01T11:19:27;10.20;99.90
9497;DHT22;4786;51.270;4.456;2023-02-01T11:21:56;10.20;99.90
9497;DHT22;4786;51.270;4.456;2023-02-01T11:24:26;10.10;99.90
9497;DHT22;4786;51.270;4.456;2023-02-01T11:26:57;10.10;99.90
9497;DHT22;4786;51.270;4.456;2023-02-01T11:29:25;10.10;99.90
9497;DHT22;4786;51.270;4.456;2023-02-01T11:31:59;10.00;99.90
9497;DHT22;4786;51.270;4.456;2023-02-01T11:34:35;10.00;99.90
9497;DHT22;4786;51.270;4.456;2023-02-01T11:37:02;10.00;99.90
9497;DHT22;4786;51.270;4.456;2023-02-01T11:39:33;9.90;99.90
9497;DHT22;4786;51.270;4.456;2023-02-01T11:42:14;9.90;99.90
9497;DHT22;4786;51.270;4.456;2023-02-01T11:44:44;9.90;99.90
9497;DHT22;4786;51.270;4.456;2023-02-01T11:47:30;9.90;99.90
9497;DHT22;4786;51.270;4.456;2023-02-01T11:50:21;9.90;99.90
9497;DHT22;4786;51.270;4.456;2023-02-01T11:53:20;9.90;99.90
9497;DHT22;4786;51.270;4.456;2023-02-01T11:56:11;10.00;99.90
9497;DHT22;4786;51.270;4.456;2023-02-01T12:01:30;10.00;99.90
9497;DHT22;4786;51.270;4.456;2023-02-01T12:04:22;9.90;99.90
9497;DHT22;4786;51.270;4.456;2023-02-01T12:07:27;9.90;99.90
9497;DHT22;4786;51.270;4.456;2023-02-01T12:12:26;9.90;99.90
9497;DHT22;4786;51.270;4.456;2023-02-01T12:15:35;9.90;99.90
9497;DHT22;4786;51.270;4.456;2023-02-01T12:21:29;9.90;99.90
9497;DHT22;4786;51.270;4.456;2023-02-01T12:43:12;9.90;99.90
9497;DHT22;4786;51.270;4.456;2023-02-01T12:48:27;10.00;99.90
9497;DHT22;4786;51.270;4.456;2023-02-01T12:50:56;10.00;99.90
9497;DHT22;4786;51.270;4.456;2023-02-01T12:56:08;10.00;99.90
9497;DHT22;4786;51.270;4.456;2023-02-01T12:58:53;10.00;99.90
9497;DHT22;4786;51.270;4.456;2023-02-01T13:01:28;10.00;99.90
9497;DHT22;4786;51.270;4.456;2023-02-01T13:06:44;10.10;99.90
9497;DHT22;4786;51.270;4.456;2023-02-01T13:09:37;10.00;99.90
9497;DHT22;4786;51.270;4.456;2023-02-01T13:14:56;10.00;99.90
9497;DHT22;4786;51.270;4.456;2023-02-01T13:17:29;10.00;99.90
9497;DHT22;4786;51.270;4.456;2023-02-01T13:22:30;9.90;99.90
9497;DHT22;4786;51.270;4.456;2023-02-01T13:25:07;9.80;99.90
9497;DHT22;4786;51.270;4.456;2023-02-01T13:27:37;9.80;99.90
9497;DHT22;4786;51.270;4.456;2023-02-01T13:41:27;9.70;99.90
9497;DHT22;4786;51.270;4.456;2023-02-01T13:43:57;9.80;99.90
9497;DHT22;4786;51.270;4.456;2023-02-01T13:46:24;9.80;99.90
9497;DHT22;4786;51.270;4.456;2023-02-01T13:48:54;9.80;99.90
9497;DHT22;4786;51.270;4.456;2023-02-01T13:51:43;9.80;99.90
9497;DHT22;4786;51.270;4.456;2023-02-01T13:56:54;9.80;99.90
9497;DHT22;4786;51.270;4.456;2023-02-01T13:59:37;9.90;99.90
9497;DHT22;4786;51.270;4.456;2023-02-01T14:05:13;9.60;99.90
9497;DHT22;4786;51.270;4.456;2023-02-01T14:10:48;9.70;99.90
9497;DHT22;4786;51.270;4.456;2023-02-01T14:26:51;9.60;99.90
9497;DHT22;4786;51.270;4.456;2023-02-01T14:32:11;9.60;99.90
9497;DHT22;4786;51.270;4.456;2023-02-01T14:40:00;9.50;99.90
9497;DHT22;4786;51.270;4.456;2023-02-01T14:50:48;9.40;99.90
9497;DHT22;4786;51.270;4.456;2023-02-01T14:53:20;9.30;99.90
9497;DHT22;4786;51.270;4.456;2023-02-01T14:58:45;9.30;99.90
9497;DHT22;4786;51.270;4.456;2023-02-01T15:04:06;9.30;99.90
9497;DHT22;4786;51.270;4.456;2023-02-01T15:06:38;9.30;99.90
9497;DHT22;4786;51.270;4.456;2023-02-01T15:09:31;9.40;99.90
9497;DHT22;4786;51.270;4.456;2023-02-01T15:15:14;9.40;99.90
9497;DHT22;4786;51.270;4.456;2023-02-01T15:17:41;9.40;99.90
9497;DHT22;4786;51.270;4.456;2023-02-01T15:20:29;9.40;99.90
9497;DHT22;4786;51.270;4.456;2023-02-01T15:23:03;9.40;99.90
9497;DHT22;4786;51.270;4.456;2023-02-01T15:25:30;9.30;99.90
9497;DHT22;4786;51.270;4.456;2023-02-01T15:27:57;9.40;99.90
9497;DHT22;4786;51.270;4.456;2023-02-01T15:30:28;9.30;99.90
9497;DHT22;4786;51.270;4.456;2023-02-01T15:33:07;9.30;99.90
9497;DHT22;4786;51.270;4.456;2023-02-01T15:43:22;9.40;99.90
9497;DHT22;4786;51.270;4.456;2023-02-01T15:45:48;9.40;99.90
9497;DHT22;4786;51.270;4.456;2023-02-01T15:48:23;9.30;99.90
9497;DHT22;4786;51.270;4.456;2023-02-01T15:50:54;9.30;99.90
9497;DHT22;4786;51.270;4.456;2023-02-01T15:53:24;9.20;99.90
9497;DHT22;4786;51.270;4.456;2023-02-01T15:55:58;9.30;99.90
9497;DHT22;4786;51.270;4.456;2023-02-01T15:58:26;9.30;99.90
9497;DHT22;4786;51.270;4.456;2023-02-01T16:01:01;9.30;99.90
9497;DHT22;4786;51.270;4.456;2023-02-01T16:03:43;9.40;99.90
9497;DHT22;4786;51.270;4.456;2023-02-01T16:06:12;9.40;99.90
9497;DHT22;4786;51.270;4.456;2023-02-01T16:09:01;9.40;99.90
9497;DHT22;4786;51.270;4.456;2023-02-01T16:11:39;9.40;99.90
9497;DHT22;4786;51.270;4.456;2023-02-01T16:14:06;9.40;99.90
9497;DHT22;4786;51.270;4.456;2023-02-01T16:16:31;9.30;99.90
9497;DHT22;4786;51.270;4.456;2023-02-01T16:18:57;9.30;99.90
9497;DHT22;4786;51.270;4.456;2023-02-01T16:21:23;9.30;99.90
9497;DHT22;4786;51.270;4.456;2023-02-01T16:23:53;9.30;99.90
9497;DHT22;4786;51.270;4.456;2023-02-01T16:26:20;9.30;99.90
9497;DHT22;4786;51.270;4.456;2023-02-01T16:28:47;9.30;99.90
9497;DHT22;4786;51.270;4.456;2023-02-01T16:31:15;9.30;99.90
9497;DHT22;4786;51.270;4.456;2023-02-01T16:33:46;9.20;99.90
9497;DHT22;4786;51.270;4.456;2023-02-01T16:36:12;9.20;99.90
9497;DHT22;4786;51.270;4.456;2023-02-01T16:38:40;9.20;99.90
9497;DHT22;4786;51.270;4.456;2023-02-01T16:41:06;9.20;99.90
9497;DHT22;4786;51.270;4.456;2023-02-01T16:43:34;9.30;99.90
9497;DHT22;4786;51.270;4.456;2023-02-01T16:46:00;9.30;99.90
9497;DHT22;4786;51.270;4.456;2023-02-01T16:48:33;9.30;99.90
9497;DHT22;4786;51.270;4.456;2023-02-01T16:51:02;9.20;99.90
9497;DHT22;4786;51.270;4.456;2023-02-01T16:53:30;9.20;99.90
9497;DHT22;4786;51.270;4.456;2023-02-01T16:55:57;9.20;99.90
9497;DHT22;4786;51.270;4.456;2023-02-01T16:58:25;9.20;99.90
9497;DHT22;4786;51.270;4.456;2023-02-01T17:00:51;9.20;99.90
9497;DHT22;4786;51.270;4.456;2023-02-01T17:03:18;9.20;99.90
9497;DHT22;4786;51.270;4.456;2023-02-01T17:05:54;9.10;99.90
9497;DHT22;4786;51.270;4.456;2023-02-01T17:10:55;9.20;99.90
9497;DHT22;4786;51.270;4.456;2023-02-01T17:13:21;9.30;99.90
9497;DHT22;4786;51.270;4.456;2023-02-01T17:15:58;9.30;99.90
9497;DHT22;4786;51.270;4.456;2023-02-01T17:18:27;9.20;99.90
9497;DHT22;4786;51.270;4.456;2023-02-01T17:20:57;9.20;99.90
9497;DHT22;4786;51.270;4.456;2023-02-01T17:23:23;9.20;99.90
9497;DHT22;4786;51.270;4.456;2023-02-01T17:25:49;9.30;99.90
9497;DHT22;4786;51.270;4.456;2023-02-01T17:28:15;9.30;99.90
9497;DHT22;4786;51.270;4.456;2023-02-01T17:30:42;9.30;99.90
9497;DHT22;4786;51.270;4.456;2023-02-01T17:33:34;9.30;99.90
9497;DHT22;4786;51.270;4.456;2023-02-01T17:36:01;9.30;99.90
9497;DHT22;4786;51.270;4.456;2023-02-01T17:38:28;9.40;99.90
9497;DHT22;4786;51.270;4.456;2023-02-01T17:40:54;9.30;99.90
9497;DHT22;4786;51.270;4.456;2023-02-01T17:43:22;9.30;99.90
9497;DHT22;4786;51.270;4.456;2023-02-01T17:46:10;9.30;99.90
9497;DHT22;4786;51.270;4.456;2023-02-01T17:48:36;9.30;99.90
9497;DHT22;4786;51.270;4.456;2023-02-01T17:51:02;9.30;99.90
9497;DHT22;4786;51.270;4.456;2023-02-01T17:53:29;9.30;99.90
9497;DHT22;4786;51.270;4.456;2023-02-01T17:55:54;9.30;99.90
9497;DHT22;4786;51.270;4.456;2023-02-01T17:58:23;9.30;99.90
9497;DHT22;4786;51.270;4.456;2023-02-01T18:00:49;9.30;99.90
9497;DHT22;4786;51.270;4.456;2023-02-01T18:05:48;9.30;99.90
9497;DHT22;4786;51.270;4.456;2023-02-01T18:08:19;9.30;99.90
9497;DHT22;4786;51.270;4.456;2023-02-01T18:10:50;9.30;99.90
9497;DHT22;4786;51.270;4.456;2023-02-01T18:13:22;9.20;99.90
9497;DHT22;4786;51.270;4.456;2023-02-01T18:15:48;9.20;99.90
9497;DHT22;4786;51.270;4.456;2023-02-01T18:18:14;9.20;99.90
9497;DHT22;4786;51.270;4.456;2023-02-01T18:20:42;9.20;99.90
9497;DHT22;4786;51.270;4.456;2023-02-01T18:23:18;9.30;99.90
9497;DHT22;4786;51.270;4.456;2023-02-01T18:25:45;9.30;99.90
9497;DHT22;4786;51.270;4.456;2023-02-01T18:28:15;9.30;99.90
9497;DHT22;4786;51.270;4.456;2023-02-01T18:30:43;9.30;99.90
9497;DHT22;4786;51.270;4.456;2023-02-01T18:33:12;9.30;99.90
9497;DHT22;4786;51.270;4.456;2023-02-01T18:35:38;9.30;99.90
9497;DHT22;4786;51.270;4.456;2023-02-01T18:38:05;9.30;99.90
9497;DHT22;4786;51.270;4.456;2023-02-01T18:40:44;9.40;99.90
9497;DHT22;4786;51.270;4.456;2023-02-01T18:43:10;9.40;99.90
9497;DHT22;4786;51.270;4.456;2023-02-01T18:45:39;9.30;99.90
9497;DHT22;4786;51.270;4.456;2023-02-01T18:48:07;9.30;99.90
9497;DHT22;4786;51.270;4.456;2023-02-01T18:50:36;9.30;99.90
9497;DHT22;4786;51.270;4.456;2023-02-01T18:53:06;9.30;99.90
9497;DHT22;4786;51.270;4.456;2023-02-01T18:55:33;9.30;99.90
9497;DHT22;4786;51.270;4.456;2023-02-01T18:57:59;9.40;99.90
9497;DHT22;4786;51.270;4.456;2023-02-01T19:00:26;9.40;99.90
9497;DHT22;4786;51.270;4.456;2023-02-01T19:02:53;9.40;99.90
9497;DHT22;4786;51.270;4.456;2023-02-01T19:05:19;9.40;99.90
9497;DHT22;4786;51.270;4.456;2023-02-01T19:07:46;9.40;99.90
9497;DHT22;4786;51.270;4.456;2023-02-01T19:10:14;9.40;99.90
9497;DHT22;4786;51.270;4.456;2023-02-01T19:12:41;9.50;99.90
9497;DHT22;4786;51.270;4.456;2023-02-01T19:15:09;9.50;99.90
9497;DHT22;4786;51.270;4.456;2023-02-01T19:17:41;9.50;99.90
9497;DHT22;4786;51.270;4.456;2023-02-01T19:20:07;9.40;99.90
9497;DHT22;4786;51.270;4.456;2023-02-01T19:22:35;9.40;99.90
9497;DHT22;4786;51.270;4.456;2023-02-01T19:25:02;9.50;99.90
9497;DHT22;4786;51.270;4.456;2023-02-01T19:27:29;9.40;99.90
9497;DHT22;4786;51.270;4.456;2023-02-01T19:29:55;9.40;99.90
9497;DHT22;4786;51.270;4.456;2023-02-01T19:32:21;9.40;99.90
9497;DHT22;4786;51.270;4.456;2023-02-01T19:34:47;9.40;99.90
9497;DHT22;4786;51.270;4.456;2023-02-01T19:37:13;9.40;99.90
9497;DHT22;4786;51.270;4.456;2023-02-01T19:39:39;9.40;99.90
9497;DHT22;4786;51.270;4.456;2023-02-01T19:42:06;9.50;99.90